Scout — WDF8049 — position and weather

sailwx.info

Track history (hours):
 
Tides and Currents Weather Stations Pressure Air Temp Water Temp Dewpoint Dewpoint Depression Visibility Wind Speed Wind Dir Waves Ship Positions

Scout

Owner: Sandbo, Scott E, Portland, OR. More information available from US FCC via Universal Licensing System and Coast Guard Vessel Documentation Center.

Last reported at 2016-Aug-23 05:21 UTC. Time now 2016-Aug-26 03:13 UTC.
Position N 48°37' W 123°09'.

Length 15 m.

Type: Pleasure craft. MMSI: 367490850.

Date/timePositionNaut miles runAvg speedWind from/ knotsBaromVisibWave heightAir tempDewpointWater temp
2016-Aug-23 05:21N 48°37' W 123°09'0 0.0
2016-Aug-22 22:18N 48°37' W 123°09'0 0.0
2016-Aug-22 21:22N 48°37' W 123°09'0 0.0
2016-Aug-22 19:22N 48°37' W 123°09'0 0.0
2016-Aug-22 18:28N 48°37' W 123°09'2914.8
2016-Aug-22 16:29N 49°05' W 123°21'1616.9
2016-Aug-22 15:33N 49°19' W 123°10'2 1.7
2016-Aug-22 14:25N 49°17' W 123°08'0 0.0
2016-Aug-22 13:34N 49°17' W 123°08'0 0.0
2016-Aug-22 12:31N 49°17' W 123°08'0 0.0
2016-Aug-22 11:31N 49°17' W 123°08'0 0.0
2016-Aug-22 10:31N 49°17' W 123°08'0 0.0
2016-Aug-22 09:31N 49°17' W 123°08'0 0.0
2016-Aug-22 08:31N 49°17' W 123°08'0 0.0
2016-Aug-22 07:31N 49°17' W 123°08'0 0.0
2016-Aug-22 06:31N 49°17' W 123°08'0 0.0
2016-Aug-22 05:31N 49°17' W 123°08'0 0.0
2016-Aug-22 04:31N 49°17' W 123°08'0 0.2
2016-Aug-22 03:33N 49°18' W 123°07'2222.0
2016-Aug-22 02:32N 49°23' W 123°40'2322.5
2016-Aug-22 01:32N 49°36' W 124°09'2721.5
2016-Aug-22 00:18N 49°54' W 124°40'1317.2
2016-Aug-21 23:33N 50°06' W 124°46'0 0.4
2016-Aug-21 22:31N 50°06' W 124°45'0 0.0
2016-Aug-21 21:31N 50°06' W 124°45'0 0.0
2016-Aug-21 20:25N 50°06' W 124°45'2 1.3
2016-Aug-21 18:33N 50°09' W 124°44'  
Track history (hours):
 
Tides and Currents Weather Stations Pressure Air Temp Water Temp Dewpoint Dewpoint Depression Visibility Wind Speed Wind Dir Waves Ship Positions

Scout

Owner: Sandbo, Scott E, Portland, OR. More information available from US FCC via Universal Licensing System and Coast Guard Vessel Documentation Center.

Last reported at 2016-Aug-23 05:21 UTC. Time now 2016-Aug-26 03:13 UTC.
Position N 48°37' W 123°09'.

Length 15 m.

Type: Pleasure craft. MMSI: 367490850.

Date/timePositionNaut miles runAvg speedWind from/ knotsBaromVisibWave heightAir tempDewpointWater temp
2016-Aug-23 05:21N 48°37' W 123°09'0 0.0
2016-Aug-22 22:18N 48°37' W 123°09'0 0.0
2016-Aug-22 21:22N 48°37' W 123°09'0 0.0
2016-Aug-22 19:22N 48°37' W 123°09'0 0.0
2016-Aug-22 18:28N 48°37' W 123°09'2914.8
2016-Aug-22 16:29N 49°05' W 123°21'1616.9
2016-Aug-22 15:33N 49°19' W 123°10'2 1.7
2016-Aug-22 14:25N 49°17' W 123°08'0 0.0
2016-Aug-22 13:34N 49°17' W 123°08'0 0.0
2016-Aug-22 12:31N 49°17' W 123°08'0 0.0
2016-Aug-22 11:31N 49°17' W 123°08'0 0.0
2016-Aug-22 10:31N 49°17' W 123°08'0 0.0
2016-Aug-22 09:31N 49°17' W 123°08'0 0.0
2016-Aug-22 08:31N 49°17' W 123°08'0 0.0
2016-Aug-22 07:31N 49°17' W 123°08'0 0.0
2016-Aug-22 06:31N 49°17' W 123°08'0 0.0
2016-Aug-22 05:31N 49°17' W 123°08'0 0.0
2016-Aug-22 04:31N 49°17' W 123°08'0 0.2
2016-Aug-22 03:33N 49°18' W 123°07'2222.0
2016-Aug-22 02:32N 49°23' W 123°40'2322.5
2016-Aug-22 01:32N 49°36' W 124°09'2721.5
2016-Aug-22 00:18N 49°54' W 124°40'1317.2
2016-Aug-21 23:33N 50°06' W 124°46'0 0.4
2016-Aug-21 22:31N 50°06' W 124°45'0 0.0
2016-Aug-21 21:31N 50°06' W 124°45'0 0.0
2016-Aug-21 20:25N 50°06' W 124°45'2 1.3
2016-Aug-21 18:33N 50°09' W 124°44'  

Dump ship's entire track history